Time;durP1;ratioP1;P1;durP2;ratioP2;P2;SDS_P1;SDS_P2;PMS_P1;PMS_P2;Temp;Humidity;BMP_temperature;BMP_pressure;BME280_temperature;BME280_humidity;BME280_pressure;Samples;Min_cycle;Max_cycle;Signal;HPM_P1;HPM_P2
2021/12/27 00:01:06;;;;;;;4.70;4.07;;;15.90;29.70;;;;;;5114973;28;20043;-65
2021/12/27 00:03:32;;;;;;;4.75;4.03;;;15.80;29.80;;;;;;5115211;28;20059;-65
2021/12/27 00:05:58;;;;;;;4.28;3.88;;;15.70;29.90;;;;;;5114874;28;20494;-65
2021/12/27 00:08:23;;;;;;;4.43;3.80;;;15.60;30.00;;;;;;5115117;28;20069;-65
2021/12/27 00:10:50;;;;;;;4.50;4.10;;;15.50;30.20;;;;;;5115961;28;20554;-65
2021/12/27 00:13:16;;;;;;;5.30;4.18;;;15.40;30.30;;;;;;5114776;28;20040;-65
2021/12/27 00:15:43;;;;;;;5.07;4.57;;;15.30;30.50;;;;;;5114699;28;20119;-65
2021/12/27 00:18:10;;;;;;;3.88;3.58;;;15.20;30.60;;;;;;5114882;28;20541;-65
2021/12/27 00:20:35;;;;;;;3.90;3.53;;;15.20;30.80;;;;;;5115821;28;20032;-65
2021/12/27 00:23:01;;;;;;;4.18;3.80;;;15.20;31.60;;;;;;5115943;28;20497;-66
2021/12/27 00:25:28;;;;;;;5.03;4.10;;;15.30;30.70;;;;;;5114675;28;20082;-65
2021/12/27 00:27:55;;;;;;;4.72;4.25;;;15.50;30.60;;;;;;5115706;28;20095;-65
2021/12/27 00:30:21;;;;;;;3.83;3.42;;;15.70;30.40;;;;;;5114415;28;20127;-65
2021/12/27 00:32:48;;;;;;;3.92;2.80;;;16.00;30.20;;;;;;5114295;28;20043;-65
2021/12/27 00:35:15;;;;;;;4.45;3.13;;;16.20;30.00;;;;;;5113987;28;20050;-65
2021/12/27 00:37:41;;;;;;;4.00;3.60;;;16.50;29.80;;;;;;5114458;28;20031;-65
2021/12/27 00:40:09;;;;;;;3.55;3.15;;;16.80;29.50;;;;;;5114205;28;20047;-65
2021/12/27 00:42:35;;;;;;;3.75;3.33;;;17.20;29.20;;;;;;5115325;28;20036;-65
2021/12/27 00:45:01;;;;;;;3.45;3.15;;;17.60;29.00;;;;;;5114188;28;20088;-66
2021/12/27 00:47:26;;;;;;;3.65;2.90;;;17.90;28.70;;;;;;5115418;28;20035;-65
2021/12/27 00:49:52;;;;;;;3.95;3.45;;;18.20;28.40;;;;;;5114315;28;20468;-65
2021/12/27 00:52:20;;;;;;;3.40;2.80;;;18.50;28.20;;;;;;5114410;28;20127;-65
2021/12/27 00:54:46;;;;;;;3.28;2.97;;;18.80;27.90;;;;;;5115137;28;20050;-66
2021/12/27 00:57:12;;;;;;;3.28;2.83;;;19.00;27.80;;;;;;5115081;28;20114;-65
2021/12/27 00:59:37;;;;;;;3.42;2.90;;;19.20;27.60;;;;;;5115092;28;20042;-65
2021/12/27 01:02:03;;;;;;;4.00;3.35;;;19.30;27.50;;;;;;5115251;28;20088;-65
2021/12/27 01:04:29;;;;;;;3.40;3.10;;;19.30;27.50;;;;;;5113845;28;20042;-65
2021/12/27 01:06:54;;;;;;;3.17;2.88;;;19.30;27.40;;;;;;5113253;28;20074;-65
2021/12/27 01:09:36;;;;;;;3.95;3.58;;;19.30;27.40;;;;;;5113660;28;20039;-65
2021/12/27 01:15:09;;;;;;;3.58;3.28;;;19.10;27.50;;;;;;5114627;28;20055;-65
2021/12/27 01:17:36;;;;;;;4.00;2.95;;;19.10;27.50;;;;;;5114562;28;20048;-65
2021/12/27 01:20:05;;;;;;;3.53;2.83;;;19.00;27.60;;;;;;5114720;28;20071;-66
2021/12/27 01:22:30;;;;;;;4.60;3.33;;;18.90;27.70;;;;;;5113491;28;20062;-65
2021/12/27 01:24:56;;;;;;;3.58;3.22;;;18.70;27.70;;;;;;5113401;28;20475;-65
2021/12/27 01:27:22;;;;;;;3.90;3.60;;;18.60;27.80;;;;;;5114846;28;20131;-65
2021/12/27 01:29:47;;;;;;;4.05;3.47;;;18.50;28.00;;;;;;5113120;28;20551;-66
2021/12/27 01:32:13;;;;;;;4.00;3.45;;;18.40;28.00;;;;;;5114486;28;20035;-65
2021/12/27 01:34:39;;;;;;;3.45;3.13;;;18.30;28.20;;;;;;5114082;28;20114;-65
2021/12/27 01:37:06;;;;;;;4.55;3.63;;;18.10;28.30;;;;;;5113133;28;20483;-65
2021/12/27 01:39:31;;;;;;;3.47;3.17;;;18.00;28.40;;;;;;5113074;28;20044;-65
2021/12/27 01:41:57;;;;;;;4.00;3.60;;;17.90;28.50;;;;;;5114308;28;20042;-65
2021/12/27 01:44:23;;;;;;;3.58;3.15;;;17.70;28.70;;;;;;5114239;28;20054;-66
2021/12/27 01:46:53;;;;;;;3.53;3.20;;;17.60;28.80;;;;;;5112925;28;20039;-65
2021/12/27 01:49:19;;;;;;;4.13;3.83;;;17.40;28.90;;;;;;5114228;28;20035;-65
2021/12/27 01:51:45;;;;;;;4.05;3.65;;;17.30;29.10;;;;;;5112688;28;20048;-65
2021/12/27 01:54:10;;;;;;;3.72;3.38;;;17.10;29.20;;;;;;5112634;28;20130;-65
2021/12/27 01:56:36;;;;;;;3.45;3.13;;;17.00;29.40;;;;;;5114083;28;20127;-65
2021/12/27 01:59:05;;;;;;;4.88;4.35;;;16.90;29.50;;;;;;5113988;28;20130;-65
2021/12/27 02:01:31;;;;;;;4.13;3.72;;;16.80;29.70;;;;;;5113919;28;20119;-66
2021/12/27 02:03:59;;;;;;;4.60;4.07;;;16.70;29.80;;;;;;5113857;28;20071;-65
2021/12/27 02:06:25;;;;;;;5.03;4.50;;;16.60;30.00;;;;;;5112316;28;20414;-65
2021/12/27 02:08:52;;;;;;;3.80;3.47;;;16.50;30.00;;;;;;5112685;28;20046;-66
2021/12/27 02:11:19;;;;;;;3.88;3.58;;;16.40;30.20;;;;;;5113863;28;20065;-65
2021/12/27 02:13:46;;;;;;;5.68;4.47;;;16.30;30.30;;;;;;5113655;28;20054;-64
2021/12/27 02:16:19;;;;;;;4.07;3.67;;;16.20;30.50;;;;;;5113443;28;20399;-65
2021/12/27 02:18:46;;;;;;;3.53;3.22;;;16.10;30.60;;;;;;5111918;28;20387;-65
2021/12/27 02:21:12;;;;;;;4.65;3.80;;;16.00;30.70;;;;;;5113257;28;20048;-65
2021/12/27 02:23:40;;;;;;;4.55;4.13;;;15.90;30.80;;;;;;5112203;28;20487;-65
2021/12/27 02:26:07;;;;;;;4.47;4.07;;;15.90;31.00;;;;;;5113334;28;20115;-65
2021/12/27 02:28:33;;;;;;;4.63;3.92;;;15.80;31.20;;;;;;5113377;28;20426;-65
2021/12/27 02:30:59;;;;;;;4.70;4.25;;;15.70;31.30;;;;;;5112011;28;20081;-64
2021/12/27 02:33:24;;;;;;;4.97;4.43;;;15.60;31.40;;;;;;5112288;28;20046;-65
2021/12/27 02:35:53;;;;;;;4.75;4.30;;;15.50;31.60;;;;;;5112747;28;20430;-65
2021/12/27 02:38:23;;;;;;;4.15;3.75;;;15.40;31.70;;;;;;5113265;28;20075;-65
2021/12/27 02:40:53;;;;;;;5.15;4.15;;;15.40;32.10;;;;;;5112128;28;20115;-65
2021/12/27 02:43:21;;;;;;;5.22;4.72;;;15.30;32.10;;;;;;5111836;28;20115;-65
2021/12/27 02:45:51;;;;;;;5.40;4.53;;;15.20;32.10;;;;;;5112006;28;20047;-65
2021/12/27 02:48:22;;;;;;;4.45;4.05;;;15.10;32.30;;;;;;5112951;28;20036;-65
2021/12/27 02:50:49;;;;;;;5.13;4.43;;;15.10;32.40;;;;;;5112866;28;20042;-65
2021/12/27 02:53:16;;;;;;;5.38;4.57;;;15.00;32.50;;;;;;5111739;28;20032;-65
2021/12/27 02:55:42;;;;;;;5.50;4.93;;;14.90;32.60;;;;;;5111539;28;20048;-65
2021/12/27 02:58:09;;;;;;;4.55;4.15;;;14.80;32.70;;;;;;5113023;28;20047;-65
2021/12/27 03:00:38;;;;;;;5.47;4.40;;;14.80;32.80;;;;;;5112743;28;20036;-65
2021/12/27 03:03:05;;;;;;;5.55;4.53;;;14.80;33.60;;;;;;5112771;28;20398;-65
2021/12/27 03:05:31;;;;;;;4.63;4.13;;;15.00;32.80;;;;;;5112998;28;20043;-65
2021/12/27 03:08:00;;;;;;;4.35;3.95;;;15.10;32.70;;;;;;5112707;28;20043;-65
2021/12/27 03:10:30;;;;;;;4.32;3.92;;;15.30;32.40;;;;;;5111593;28;20042;-65
2021/12/27 03:12:57;;;;;;;4.13;3.70;;;15.60;32.20;;;;;;5112592;28;20505;-64
2021/12/27 03:15:26;;;;;;;5.00;4.50;;;15.90;31.90;;;;;;5111209;28;20494;-65
2021/12/27 03:17:54;;;;;;;3.45;3.05;;;16.20;31.50;;;;;;5112458;28;20032;-65
2021/12/27 03:20:23;;;;;;;3.63;3.00;;;16.50;31.00;;;;;;5112580;28;20514;-65
2021/12/27 03:22:49;;;;;;;3.17;2.92;;;16.90;30.70;;;;;;5111399;28;20491;-65
2021/12/27 03:25:18;;;;;;;4.07;3.17;;;17.30;30.30;;;;;;5111258;28;20126;-64
2021/12/27 03:27:44;;;;;;;3.53;3.17;;;17.60;30.00;;;;;;5112408;28;20039;-65
2021/12/27 03:30:15;;;;;;;4.00;3.60;;;18.00;29.70;;;;;;5111019;28;20518;-65
2021/12/27 03:32:41;;;;;;;5.28;3.00;;;18.30;30.00;;;;;;5110952;28;20085;-65
2021/12/27 03:35:14;;;;;;;3.53;3.20;;;18.60;29.10;;;;;;5110762;28;20048;-65
2021/12/27 03:37:45;;;;;;;3.92;3.30;;;18.90;28.90;;;;;;5111274;28;20059;-65
2021/12/27 03:40:14;;;;;;;3.53;3.17;;;19.10;28.80;;;;;;5112368;28;20035;-65
2021/12/27 03:42:40;;;;;;;2.92;2.72;;;19.20;28.60;;;;;;5112272;28;20390;-65
2021/12/27 03:45:09;;;;;;;3.53;3.17;;;19.20;28.60;;;;;;5110966;28;20031;-66
2021/12/27 03:47:36;;;;;;;4.32;3.67;;;19.30;28.50;;;;;;5112140;28;20096;-65
2021/12/27 03:50:04;;;;;;;3.13;2.83;;;19.30;28.50;;;;;;5112496;28;20039;-65
2021/12/27 03:52:30;;;;;;;3.70;3.22;;;19.30;28.50;;;;;;5112187;28;20049;-65
2021/12/27 03:54:56;;;;;;;4.10;3.15;;;19.20;28.50;;;;;;5111089;28;20490;-65
2021/12/27 03:57:21;;;;;;;4.05;3.65;;;19.10;28.50;;;;;;5111101;28;20067;-65
2021/12/27 03:59:53;;;;;;;3.63;3.33;;;19.10;28.60;;;;;;5112095;28;20067;-65
2021/12/27 04:02:19;;;;;;;3.40;3.10;;;19.00;28.60;;;;;;5110914;28;20035;-65
2021/12/27 04:04:44;;;;;;;3.40;3.10;;;18.90;28.70;;;;;;5111073;28;20096;-65
2021/12/27 04:07:11;;;;;;;3.83;3.53;;;18.80;28.80;;;;;;5112187;28;20383;-65
2021/12/27 04:09:38;;;;;;;4.55;4.15;;;18.60;28.80;;;;;;5111994;28;20110;-65
2021/12/27 04:12:04;;;;;;;3.75;3.25;;;18.50;28.90;;;;;;5110712;28;20054;-65
2021/12/27 04:14:30;;;;;;;3.78;3.47;;;18.40;29.00;;;;;;5110487;28;20032;-65
2021/12/27 04:16:59;;;;;;;4.32;3.58;;;18.30;29.20;;;;;;5112222;28;20044;-64
2021/12/27 04:19:27;;;;;;;4.40;4.00;;;18.20;29.30;;;;;;5110704;28;20035;-65
2021/12/27 04:21:53;;;;;;;4.40;4.00;;;18.10;29.40;;;;;;5110663;28;20122;-65
2021/12/27 04:24:18;;;;;;;4.38;3.60;;;17.90;29.50;;;;;;5111872;28;20130;-65
2021/12/27 04:26:44;;;;;;;4.75;3.92;;;17.70;29.60;;;;;;5111945;28;20038;-65
2021/12/27 04:29:13;;;;;;;4.38;3.90;;;17.60;29.80;;;;;;5111794;28;20036;-65
2021/12/27 04:31:38;;;;;;;4.20;3.80;;;17.40;29.90;;;;;;5111796;28;20350;-65
2021/12/27 04:34:04;;;;;;;5.03;4.28;;;17.30;30.00;;;;;;5111935;28;20320;-65
2021/12/27 04:36:29;;;;;;;5.00;3.70;;;17.20;30.20;;;;;;5110290;28;20048;-66
2021/12/27 04:38:55;;;;;;;4.40;4.00;;;17.10;30.40;;;;;;5111602;28;20051;-65
2021/12/27 04:41:22;;;;;;;4.38;3.97;;;16.90;30.50;;;;;;5111813;28;20067;-65
2021/12/27 04:43:48;;;;;;;5.07;4.22;;;16.80;30.70;;;;;;5114590;28;20115;-65
2021/12/27 04:46:13;;;;;;;5.20;4.55;;;16.70;30.90;;;;;;5115239;28;20123;-65
2021/12/27 04:48:39;;;;;;;4.63;4.18;;;16.60;31.10;;;;;;5115503;28;20040;-65
2021/12/27 04:51:05;;;;;;;4.95;4.40;;;16.40;31.20;;;;;;5115320;28;20039;-64
2021/12/27 04:53:30;;;;;;;5.20;4.45;;;16.40;31.40;;;;;;5114247;28;20088;-65
2021/12/27 04:55:59;;;;;;;5.88;5.28;;;16.30;31.50;;;;;;5113729;28;20043;-65
2021/12/27 04:58:25;;;;;;;5.22;4.78;;;16.20;31.70;;;;;;5115223;28;20483;-65
2021/12/27 05:00:53;;;;;;;5.35;4.82;;;16.10;31.90;;;;;;5113721;28;20067;-64
2021/12/27 05:03:18;;;;;;;4.88;4.38;;;16.00;32.10;;;;;;5115342;28;20035;-65
2021/12/27 05:05:47;;;;;;;4.90;4.38;;;15.90;32.20;;;;;;5113980;28;20040;-65
2021/12/27 05:08:13;;;;;;;4.80;4.40;;;15.80;32.40;;;;;;5113669;28;20070;-65
2021/12/27 05:10:39;;;;;;;5.47;4.75;;;15.70;32.50;;;;;;5114818;28;20160;-64
2021/12/27 05:13:08;;;;;;;5.05;4.35;;;15.60;32.70;;;;;;5113913;28;20093;-65
2021/12/27 05:15:36;;;;;;;4.78;4.10;;;15.50;32.90;;;;;;5114496;28;20056;-65
2021/12/27 05:18:03;;;;;;;5.78;4.95;;;15.40;33.00;;;;;;5113804;28;20054;-65
2021/12/27 05:20:28;;;;;;;5.18;4.68;;;15.40;33.20;;;;;;5114639;28;20050;-65
2021/12/27 05:22:57;;;;;;;4.78;4.28;;;15.30;33.40;;;;;;5114721;28;20035;-64
2021/12/27 05:25:22;;;;;;;6.68;5.55;;;15.30;33.50;;;;;;5113720;28;20044;-65
2021/12/27 05:27:48;;;;;;;5.43;4.70;;;15.20;33.70;;;;;;5113329;28;20480;-64
2021/12/27 05:30:14;;;;;;;5.45;4.55;;;15.10;33.70;;;;;;5113531;28;20126;-65
2021/12/27 05:32:44;;;;;;;5.78;4.85;;;15.10;33.90;;;;;;5114830;28;20108;-65
2021/12/27 05:35:10;;;;;;;5.32;4.82;;;15.00;34.00;;;;;;5113077;28;20062;-65
2021/12/27 05:37:37;;;;;;;4.97;4.47;;;14.90;34.10;;;;;;5113329;28;20124;-64
2021/12/27 05:40:06;;;;;;;4.68;3.90;;;14.90;34.30;;;;;;5113095;28;20043;-65
2021/12/27 05:42:34;;;;;;;4.95;4.10;;;14.80;34.30;;;;;;5114289;28;20048;-64
2021/12/27 05:45:00;;;;;;;4.82;4.20;;;14.90;34.30;;;;;;5112911;28;20051;-64
2021/12/27 05:47:26;;;;;;;4.97;4.47;;;15.10;34.20;;;;;;5112913;28;20114;-65
2021/12/27 05:49:52;;;;;;;5.13;4.15;;;15.30;34.00;;;;;;5114186;28;20130;-65
2021/12/27 05:52:21;;;;;;;4.93;3.95;;;15.50;33.70;;;;;;5113002;28;20031;-64
2021/12/27 05:54:46;;;;;;;4.15;3.75;;;15.80;33.50;;;;;;5114042;28;20240;-64
2021/12/27 05:57:12;;;;;;;4.07;3.67;;;16.00;33.00;;;;;;5112767;28;20359;-65
2021/12/27 05:59:38;;;;;;;4.53;3.85;;;16.40;32.70;;;;;;5112797;28;20039;-65
2021/12/27 06:02:06;;;;;;;4.05;3.65;;;16.70;32.30;;;;;;5112907;28;20092;-65
2021/12/27 06:04:32;;;;;;;2.88;2.67;;;17.10;31.90;;;;;;5112659;28;20043;-65
2021/12/27 06:06:57;;;;;;;3.92;2.85;;;17.50;31.50;;;;;;5112585;28;20068;-65
2021/12/27 06:09:23;;;;;;;3.35;3.05;;;17.80;31.00;;;;;;5113925;28;20031;-65
2021/12/27 06:11:49;;;;;;;3.90;3.50;;;18.20;30.60;;;;;;5112379;28;20386;-64
2021/12/27 06:14:17;;;;;;;3.75;3.15;;;18.50;30.30;;;;;;5113614;28;20042;-65
2021/12/27 06:16:43;;;;;;;3.88;3.53;;;18.80;30.00;;;;;;5112280;28;20058;-64
2021/12/27 06:19:09;;;;;;;4.50;3.00;;;19.00;29.90;;;;;;5112261;28;20039;-64
2021/12/27 06:21:36;;;;;;;3.38;3.08;;;19.10;29.80;;;;;;5112386;28;20126;-65
2021/12/27 06:24:03;;;;;;;3.97;3.53;;;19.20;29.60;;;;;;5112484;28;20040;-65
2021/12/27 06:26:29;;;;;;;3.53;3.22;;;19.20;29.60;;;;;;5112270;28;20131;-65
2021/12/27 06:28:54;;;;;;;3.90;3.33;;;19.20;29.60;;;;;;5113328;28;20131;-65
2021/12/27 06:31:20;;;;;;;4.82;3.88;;;19.20;29.60;;;;;;5112316;28;20035;-64
2021/12/27 06:33:46;;;;;;;4.00;3.53;;;19.20;29.60;;;;;;5111998;28;20035;-64
2021/12/27 06:36:12;;;;;;;4.85;3.88;;;19.10;29.60;;;;;;5112746;28;20057;-64
2021/12/27 06:38:38;;;;;;;3.33;3.03;;;19.10;29.60;;;;;;5111853;28;20052;-65
2021/12/27 06:41:03;;;;;;;3.53;3.22;;;19.00;29.70;;;;;;5113193;28;20035;-64
2021/12/27 06:43:30;;;;;;;4.15;3.50;;;18.90;29.80;;;;;;5113102;28;20119;-65
2021/12/27 06:45:57;;;;;;;3.78;3.42;;;18.80;29.80;;;;;;5112119;28;20039;-64
2021/12/27 06:48:23;;;;;;;3.85;3.47;;;18.70;30.00;;;;;;5112955;28;20067;-65
2021/12/27 06:50:48;;;;;;;3.58;3.28;;;18.60;30.00;;;;;;5112066;28;20035;-65
2021/12/27 06:53:15;;;;;;;3.95;3.53;;;18.50;30.00;;;;;;5111673;28;20501;-64
2021/12/27 06:55:42;;;;;;;3.90;3.45;;;18.40;30.20;;;;;;5112888;28;20368;-64
2021/12/27 06:58:08;;;;;;;3.90;3.22;;;18.20;30.30;;;;;;5111647;28;20040;-65
2021/12/27 07:00:34;;;;;;;3.40;3.10;;;18.10;30.50;;;;;;5111746;28;20085;-64
2021/12/27 07:02:59;;;;;;;4.40;3.80;;;18.00;30.60;;;;;;5111506;28;20434;-64
2021/12/27 07:05:25;;;;;;;4.05;3.53;;;17.80;30.70;;;;;;5111212;28;20065;-64
2021/12/27 07:07:51;;;;;;;4.30;3.83;;;17.70;30.90;;;;;;5111485;28;20059;-65
2021/12/27 07:10:19;;;;;;;3.88;3.47;;;17.60;31.10;;;;;;5111561;28;20057;-65
2021/12/27 07:12:45;;;;;;;4.93;4.22;;;17.50;31.40;;;;;;5111401;28;20045;-64
2021/12/27 07:15:10;;;;;;;4.97;4.18;;;17.30;31.50;;;;;;5111112;28;20118;-64
2021/12/27 07:17:36;;;;;;;4.07;3.30;;;17.20;31.70;;;;;;5111299;28;20312;-64
2021/12/27 07:20:03;;;;;;;5.28;3.60;;;17.00;31.90;;;;;;5111211;28;20055;-64
2021/12/27 07:22:29;;;;;;;6.78;4.70;;;16.90;32.10;;;;;;5112554;28;20046;-65
2021/12/27 07:24:54;;;;;;;4.20;3.80;;;16.80;32.30;;;;;;5111123;28;20450;-65
2021/12/27 07:27:20;;;;;;;4.88;4.00;;;16.70;32.60;;;;;;5111185;28;20043;-64
2021/12/27 07:29:46;;;;;;;6.03;4.70;;;16.60;32.70;;;;;;5110965;28;20043;-64
2021/12/27 07:32:11;;;;;;;5.90;4.57;;;16.50;32.80;;;;;;5111110;28;20048;-64
2021/12/27 07:34:37;;;;;;;5.05;4.32;;;16.40;33.00;;;;;;5112441;28;20036;-65
2021/12/27 07:37:03;;;;;;;5.07;4.13;;;16.30;33.20;;;;;;5099469;28;20048;-64
2021/12/27 07:39:29;;;;;;;5.80;5.03;;;16.20;33.30;;;;;;5092051;28;20040;-65
2021/12/27 07:41:55;;;;;;;5.20;4.70;;;16.10;33.40;;;;;;5092004;28;20047;-65
2021/12/27 07:44:24;;;;;;;5.22;4.57;;;16.00;33.60;;;;;;5091843;28;20028;-65
2021/12/27 07:46:51;;;;;;;7.43;5.15;;;15.90;33.80;;;;;;5091714;28;20520;-65
2021/12/27 07:49:17;;;;;;;6.22;4.30;;;15.80;33.90;;;;;;5091881;28;20040;-65
2021/12/27 07:51:43;;;;;;;8.68;5.45;;;15.80;34.20;;;;;;5091986;28;20043;-64
2021/12/27 07:54:09;;;;;;;6.60;4.75;;;15.70;35.10;;;;;;5091793;28;20036;-65
2021/12/27 07:56:35;;;;;;;7.88;4.90;;;15.60;34.50;;;;;;5073508;28;20046;-64
2021/12/27 07:59:04;;;;;;;6.78;5.10;;;15.50;34.60;;;;;;5073665;28;20119;-64
2021/12/27 08:01:32;;;;;;;8.88;6.07;;;15.40;34.80;;;;;;5073726;28;20115;-65
2021/12/27 08:04:02;;;;;;;7.25;5.90;;;15.30;35.00;;;;;;5091796;28;20502;-65
2021/12/27 08:06:28;;;;;;;6.88;5.10;;;15.30;35.20;;;;;;5091822;28;20051;-65
2021/12/27 08:08:54;;;;;;;8.02;5.40;;;15.20;35.20;;;;;;5091799;28;20032;-65
2021/12/27 08:11:20;;;;;;;7.28;5.72;;;15.20;35.40;;;;;;5073473;28;20062;-65
2021/12/27 08:13:46;;;;;;;8.38;5.85;;;15.10;35.50;;;;;;5091582;28;20032;-64
2021/12/27 08:16:12;;;;;;;7.65;5.35;;;15.00;35.60;;;;;;5091394;28;20078;-64
2021/12/27 08:18:38;;;;;;;6.80;4.22;;;15.00;35.80;;;;;;5094708;28;20499;-64
2021/12/27 08:21:06;;;;;;;7.22;4.15;;;14.90;35.80;;;;;;5095528;28;20032;-64
2021/12/27 08:23:32;;;;;;;8.48;4.97;;;15.00;35.80;;;;;;5077212;28;20032;-64
2021/12/27 08:26:00;;;;;;;8.57;4.78;;;15.20;35.70;;;;;;5077220;28;20104;-65
2021/12/27 08:28:26;;;;;;;8.13;4.53;;;15.40;35.50;;;;;;5061037;28;20040;-64
2021/12/27 08:30:54;;;;;;;6.28;4.15;;;15.60;35.20;;;;;;5077226;28;20475;-64
2021/12/27 08:33:20;;;;;;;6.40;3.88;;;15.80;34.80;;;;;;5095265;28;20101;-64
2021/12/27 08:35:47;;;;;;;6.15;4.32;;;16.10;34.40;;;;;;5096817;28;20131;-64
2021/12/27 08:38:13;;;;;;;7.47;4.30;;;16.40;34.00;;;;;;5115365;28;20092;-65
2021/12/27 08:40:38;;;;;;;6.18;4.05;;;16.80;33.70;;;;;;5115446;28;20111;-65
2021/12/27 08:43:04;;;;;;;9.70;5.28;;;17.10;33.30;;;;;;5115340;28;20118;-64
2021/12/27 08:45:30;;;;;;;7.65;4.50;;;17.40;32.90;;;;;;5115361;28;20040;-64
2021/12/27 08:47:56;;;;;;;6.70;4.03;;;17.70;32.50;;;;;;5115282;28;20046;-64
2021/12/27 08:50:21;;;;;;;6.90;3.92;;;18.10;32.20;;;;;;5115501;28;20116;-65
2021/12/27 08:52:49;;;;;;;6.57;3.50;;;18.30;31.70;;;;;;5115172;28;20036;-65
2021/12/27 08:55:15;;;;;;;6.30;4.00;;;18.60;31.40;;;;;;5115132;28;20039;-65
2021/12/27 08:57:44;;;;;;;5.65;3.92;;;18.80;31.10;;;;;;5115122;28;20036;-65
2021/12/27 09:00:16;;;;;;;7.70;4.10;;;19.00;30.90;;;;;;5115008;28;20048;-64
2021/12/27 09:02:43;;;;;;;6.53;4.25;;;19.10;30.70;;;;;;5096756;28;20040;-65
2021/12/27 09:05:09;;;;;;;5.72;3.47;;;19.20;30.60;;;;;;5096814;28;20097;-65
2021/12/27 09:07:35;;;;;;;7.22;4.60;;;19.20;30.50;;;;;;5096673;28;20039;-64
2021/12/27 09:10:01;;;;;;;6.10;4.25;;;19.20;30.50;;;;;;5115143;28;20040;-64
2021/12/27 09:12:29;;;;;;;6.22;3.65;;;19.20;30.50;;;;;;5114906;28;20036;-64
2021/12/27 09:14:55;;;;;;;6.63;4.15;;;19.20;30.60;;;;;;5109056;27;20043;-64
2021/12/27 09:17:21;;;;;;;7.43;4.45;;;19.10;30.60;;;;;;5135292;27;20046;-64
2021/12/27 09:19:46;;;;;;;8.27;4.35;;;19.00;30.60;;;;;;5135224;27;20039;-64
2021/12/27 09:22:15;;;;;;;8.05;5.13;;;19.00;30.70;;;;;;5135466;27;20079;-64
2021/12/27 09:24:43;;;;;;;6.82;3.80;;;18.90;30.80;;;;;;5117025;27;20043;-64
2021/12/27 09:27:09;;;;;;;8.38;4.70;;;18.80;30.80;;;;;;5117156;27;20027;-64
2021/12/27 09:29:35;;;;;;;6.20;4.15;;;18.70;31.00;;;;;;5116341;27;20394;-64
2021/12/27 09:32:01;;;;;;;9.15;4.43;;;18.60;31.10;;;;;;5116415;27;20050;-65
2021/12/27 09:34:27;;;;;;;8.30;4.38;;;18.50;31.30;;;;;;5115959;27;20193;-64
2021/12/27 09:36:52;;;;;;;7.15;5.13;;;18.40;31.40;;;;;;5116372;27;20563;-64
2021/12/27 09:39:18;;;;;;;6.88;5.30;;;18.30;31.60;;;;;;5134899;27;20111;-63
2021/12/27 09:41:45;;;;;;;7.53;4.88;;;18.10;31.70;;;;;;5135003;27;20035;-64
2021/12/27 09:44:10;;;;;;;6.55;4.50;;;18.10;31.90;;;;;;5134827;27;20092;-64
2021/12/27 09:46:36;;;;;;;7.18;4.60;;;17.90;32.10;;;;;;5116423;27;20428;-64
2021/12/27 09:49:06;;;;;;;7.20;4.85;;;17.80;32.30;;;;;;5116589;27;20042;-64
2021/12/27 09:51:34;;;;;;;5.65;4.53;;;17.70;32.60;;;;;;5134928;27;20514;-64
2021/12/27 09:54:01;;;;;;;8.23;4.88;;;17.50;32.70;;;;;;5116229;27;20039;-63
2021/12/27 09:56:29;;;;;;;7.95;5.05;;;17.40;32.90;;;;;;5115954;27;20043;-64
2021/12/27 09:58:55;;;;;;;9.18;5.60;;;17.30;33.20;;;;;;5116370;27;20068;-64
2021/12/27 10:01:21;;;;;;;8.80;5.47;;;17.10;33.30;;;;;;5116126;27;20092;-64
2021/12/27 10:06:31;;;;;;;9.73;5.63;;;17.00;33.50;;;;;;5130154;27;20463;-65
2021/12/27 10:09:00;;;;;;;8.05;5.07;;;16.80;33.90;;;;;;5128991;28;20044;-64
2021/12/27 10:16:53;;;;;;;8.23;5.50;;;16.60;34.30;;;;;;5156655;27;1165625;-64
2021/12/27 10:19:20;;;;;;;8.45;5.18;;;16.50;34.70;;;;;;5153364;27;20276;-64
2021/12/27 10:21:49;;;;;;;6.68;4.95;;;16.40;34.80;;;;;;5153250;27;20078;-64
2021/12/27 10:24:18;;;;;;;9.63;5.90;;;16.30;34.90;;;;;;5152965;27;20053;-64
2021/12/27 10:26:47;;;;;;;8.73;5.32;;;16.20;35.10;;;;;;5171722;27;20378;-63
2021/12/27 10:29:17;;;;;;;10.73;6.30;;;16.20;35.30;;;;;;5153015;27;20057;-64
2021/12/27 10:32:04;;;;;;;8.30;5.60;;;16.10;36.20;;;;;;5153156;27;20050;-65
2021/12/27 10:42:43;;;;;;;9.45;5.38;;;16.00;35.70;;;;;;5130212;27;20390;-64
2021/12/27 10:45:16;;;;;;;7.72;5.20;;;15.70;36.30;;;;;;5129125;28;20078;-65
2021/12/27 10:50:27;;;;;;;9.50;6.18;;;15.60;36.50;;;;;;5153259;27;1154321;-65
2021/12/27 10:55:48;;;;;;;11.43;6.10;;;15.40;36.90;;;;;;5130307;27;20043;-65
2021/12/27 11:03:42;;;;;;;13.02;6.90;;;15.30;37.40;;;;;;5089463;28;20418;-65
2021/12/27 11:06:10;;;;;;;12.93;6.85;;;15.20;37.60;;;;;;5088363;28;20139;-65
2021/12/27 11:08:39;;;;;;;9.45;5.28;;;15.10;37.70;;;;;;5088016;28;20498;-65
2021/12/27 11:11:08;;;;;;;10.05;4.93;;;15.10;37.80;;;;;;5088050;28;20036;-65
2021/12/27 11:13:35;;;;;;;8.43;4.97;;;15.30;37.70;;;;;;5087884;28;20124;-64
2021/12/27 11:16:01;;;;;;;8.75;5.30;;;15.50;37.30;;;;;;5088024;28;20036;-64
2021/12/27 11:18:27;;;;;;;7.80;5.43;;;15.90;36.90;;;;;;5087842;28;20094;-65
2021/12/27 11:20:56;;;;;;;9.88;5.32;;;16.20;37.10;;;;;;5087453;28;20044;-65
2021/12/27 11:23:23;;;;;;;15.30;5.13;;;16.60;35.80;;;;;;5087654;28;20564;-66
2021/12/27 11:26:03;;;;;;;9.85;4.97;;;17.00;35.70;;;;;;5087442;28;20043;-63
2021/12/27 11:36:38;;;;;;;10.75;4.10;;;18.30;34.90;;;;;;5156769;27;1168197;-70
2021/12/27 11:39:25;;;;;;;9.52;3.80;;;18.60;34.50;;;;;;5153112;27;20050;-64
2021/12/27 11:47:30;;;;;;;9.18;4.00;;;18.70;34.60;;;;;;5129577;27;20387;-64
2021/12/27 11:50:02;;;;;;;9.00;4.15;;;19.00;34.30;;;;;;5128844;28;20055;-65
2021/12/27 11:55:10;;;;;;;7.22;4.22;;;19.00;34.10;;;;;;5130172;27;20414;-64
2021/12/27 12:11:30;;;;;;;8.23;5.10;;;19.00;33.50;;;;;;5130201;27;20401;-64
2021/12/27 12:13:57;;;;;;;8.13;4.30;;;18.90;33.60;;;;;;5128735;28;20538;-64
2021/12/27 12:16:23;;;;;;;9.15;4.93;;;18.80;33.60;;;;;;5130377;27;20058;-66
2021/12/27 12:27:01;;;;;;;9.75;4.95;;;18.70;33.70;;;;;;5130198;27;20690;-64
2021/12/27 12:29:37;;;;;;;7.82;4.55;;;18.40;34.10;;;;;;5130337;27;20040;-64
2021/12/27 12:32:06;;;;;;;10.07;5.18;;;18.30;34.20;;;;;;5129260;28;20054;-66
2021/12/27 12:34:33;;;;;;;11.18;5.38;;;18.20;34.40;;;;;;5128763;28;20047;-66
2021/12/27 12:37:02;;;;;;;10.70;5.13;;;18.10;34.50;;;;;;5129006;28;20092;-65
2021/12/27 12:39:43;;;;;;;10.63;5.72;;;18.00;34.60;;;;;;5128846;28;20048;-65
2021/12/27 12:47:38;;;;;;;10.15;4.53;;;17.80;34.90;;;;;;5109900;27;20388;-66
2021/12/27 12:50:13;;;;;;;10.02;6.80;;;17.60;35.20;;;;;;5091671;28;20035;-66
2021/12/27 12:52:49;;;;;;;8.20;5.40;;;17.50;35.40;;;;;;5109787;28;20052;-66
2021/12/27 12:55:14;;;;;;;10.73;5.45;;;17.40;35.60;;;;;;5091304;28;20584;-65
2021/12/27 12:57:48;;;;;;;8.48;5.35;;;17.30;35.70;;;;;;5091554;28;20246;-66
2021/12/27 13:00:19;;;;;;;12.07;5.72;;;17.20;36.00;;;;;;5091219;28;20100;-66
2021/12/27 13:02:45;;;;;;;10.27;5.72;;;17.10;36.10;;;;;;5091246;28;20040;-66
2021/12/27 13:05:15;;;;;;;9.15;5.13;;;17.00;36.30;;;;;;5109349;28;20066;-65
2021/12/27 13:18:35;;;;;;;9.50;5.20;;;16.50;37.30;;;;;;5152888;27;1162364;-66
2021/12/27 13:23:43;;;;;;;9.68;5.57;;;16.40;37.50;;;;;;5130661;27;20353;-66
2021/12/27 13:26:11;;;;;;;10.23;5.85;;;16.20;37.70;;;;;;5129955;27;20040;-65
2021/12/27 13:28:52;;;;;;;10.02;5.10;;;16.10;37.90;;;;;;5128951;28;20046;-65
2021/12/27 13:31:23;;;;;;;9.38;6.03;;;16.10;38.30;;;;;;5128985;28;20538;-65
2021/12/27 13:42:04;;;;;;;9.93;5.03;;;15.90;38.40;;;;;;5150934;27;20106;-64
2021/12/27 13:44:32;;;;;;;7.45;4.88;;;15.70;38.80;;;;;;5129094;28;20120;-66
2021/12/27 13:47:02;;;;;;;7.95;5.00;;;15.60;38.90;;;;;;5129109;28;20074;-65
2021/12/27 13:49:28;;;;;;;9.65;4.35;;;15.60;39.00;;;;;;5129230;28;20493;-64
2021/12/27 13:52:04;;;;;;;11.82;5.80;;;15.50;39.10;;;;;;5128979;28;20048;-66
2021/12/27 13:54:48;;;;;;;9.27;5.35;;;15.50;39.30;;;;;;5128839;28;20090;-64
2021/12/27 13:57:15;;;;;;;7.43;5.22;;;15.50;39.40;;;;;;5128884;28;20051;-66
2021/12/27 13:59:46;;;;;;;8.48;4.63;;;15.40;39.30;;;;;;5128628;28;20050;-64
2021/12/27 14:02:15;;;;;;;9.30;5.00;;;15.40;39.40;;;;;;5128874;28;20433;-65
2021/12/27 14:04:41;;;;;;;9.05;4.55;;;15.30;39.50;;;;;;5129868;28;20092;-64
2021/12/27 14:07:20;;;;;;;7.00;4.50;;;15.30;39.60;;;;;;5128491;28;20537;-65
2021/12/27 14:09:47;;;;;;;8.77;5.10;;;15.20;39.70;;;;;;5128780;28;20067;-66
2021/12/27 14:12:26;;;;;;;9.38;5.20;;;15.20;39.70;;;;;;5128536;28;20061;-64
2021/12/27 14:14:52;;;;;;;6.95;4.65;;;15.10;39.90;;;;;;5128329;28;20050;-65
2021/12/27 14:17:28;;;;;;;5.70;3.70;;;15.10;39.90;;;;;;5128339;28;20040;-65
2021/12/27 14:25:23;;;;;;;6.53;3.72;;;15.10;40.20;;;;;;5151003;27;20095;-65
2021/12/27 14:27:51;;;;;;;5.38;3.38;;;15.50;39.40;;;;;;5129038;28;20057;-65